sensor_id;sensor_type;location;lat;lon;timestamp;temperature;humidity
19342;DHT22;9807;48.258;12.690;2022-08-30T00:00:21;21.40;99.90
19342;DHT22;9807;48.258;12.690;2022-08-30T00:03:10;21.30;99.90
19342;DHT22;9807;48.258;12.690;2022-08-30T00:05:36;21.30;99.90
19342;DHT22;9807;48.258;12.690;2022-08-30T00:08:02;21.30;99.90
19342;DHT22;9807;48.258;12.690;2022-08-30T00:10:28;21.20;99.90
19342;DHT22;9807;48.258;12.690;2022-08-30T00:12:55;21.20;99.90
19342;DHT22;9807;48.258;12.690;2022-08-30T00:15:21;21.20;99.90
19342;DHT22;9807;48.258;12.690;2022-08-30T00:17:47;21.10;99.90
19342;DHT22;9807;48.258;12.690;2022-08-30T00:20:16;21.00;99.90
19342;DHT22;9807;48.258;12.690;2022-08-30T00:22:46;20.60;99.90
19342;DHT22;9807;48.258;12.690;2022-08-30T00:25:13;20.50;99.90
19342;DHT22;9807;48.258;12.690;2022-08-30T00:27:39;20.50;99.90
19342;DHT22;9807;48.258;12.690;2022-08-30T00:30:05;20.50;99.90
19342;DHT22;9807;48.258;12.690;2022-08-30T00:32:35;20.50;99.90
19342;DHT22;9807;48.258;12.690;2022-08-30T00:35:01;20.60;99.90
19342;DHT22;9807;48.258;12.690;2022-08-30T00:37:27;20.70;99.90
19342;DHT22;9807;48.258;12.690;2022-08-30T00:39:53;20.70;99.90
19342;DHT22;9807;48.258;12.690;2022-08-30T00:42:20;20.50;99.90
19342;DHT22;9807;48.258;12.690;2022-08-30T00:44:46;20.40;99.90
19342;DHT22;9807;48.258;12.690;2022-08-30T00:47:12;20.40;99.90
19342;DHT22;9807;48.258;12.690;2022-08-30T00:49:41;20.60;99.90
19342;DHT22;9807;48.258;12.690;2022-08-30T00:52:11;20.60;99.90
19342;DHT22;9807;48.258;12.690;2022-08-30T00:54:39;20.70;99.90
19342;DHT22;9807;48.258;12.690;2022-08-30T00:57:06;20.80;99.90
19342;DHT22;9807;48.258;12.690;2022-08-30T00:59:33;20.80;99.90
19342;DHT22;9807;48.258;12.690;2022-08-30T01:02:00;20.80;99.90
19342;DHT22;9807;48.258;12.690;2022-08-30T01:04:27;20.80;99.90
19342;DHT22;9807;48.258;12.690;2022-08-30T01:06:54;20.80;99.90
19342;DHT22;9807;48.258;12.690;2022-08-30T01:09:20;20.80;99.90
19342;DHT22;9807;48.258;12.690;2022-08-30T01:11:47;20.80;99.90
19342;DHT22;9807;48.258;12.690;2022-08-30T01:14:13;20.80;99.90
19342;DHT22;9807;48.258;12.690;2022-08-30T01:16:41;20.80;99.90
19342;DHT22;9807;48.258;12.690;2022-08-30T01:19:27;20.80;99.90
19342;DHT22;9807;48.258;12.690;2022-08-30T01:22:04;20.80;99.90
19342;DHT22;9807;48.258;12.690;2022-08-30T01:24:32;20.70;99.90
19342;DHT22;9807;48.258;12.690;2022-08-30T01:27:00;20.70;99.90
19342;DHT22;9807;48.258;12.690;2022-08-30T01:29:26;20.70;99.90
19342;DHT22;9807;48.258;12.690;2022-08-30T01:31:55;20.70;99.90
19342;DHT22;9807;48.258;12.690;2022-08-30T01:34:21;20.70;99.90
19342;DHT22;9807;48.258;12.690;2022-08-30T01:36:47;20.70;99.90
19342;DHT22;9807;48.258;12.690;2022-08-30T01:39:15;20.70;99.90
19342;DHT22;9807;48.258;12.690;2022-08-30T01:41:45;20.60;99.90
19342;DHT22;9807;48.258;12.690;2022-08-30T01:44:12;20.60;99.90
19342;DHT22;9807;48.258;12.690;2022-08-30T01:46:46;20.60;99.90
19342;DHT22;9807;48.258;12.690;2022-08-30T01:49:14;20.60;99.90
19342;DHT22;9807;48.258;12.690;2022-08-30T01:51:41;20.60;99.90
19342;DHT22;9807;48.258;12.690;2022-08-30T01:54:07;20.50;99.90
19342;DHT22;9807;48.258;12.690;2022-08-30T01:56:34;20.50;99.90
19342;DHT22;9807;48.258;12.690;2022-08-30T01:59:00;20.50;99.90
19342;DHT22;9807;48.258;12.690;2022-08-30T02:01:27;20.50;99.90
19342;DHT22;9807;48.258;12.690;2022-08-30T02:03:55;20.50;99.90
19342;DHT22;9807;48.258;12.690;2022-08-30T02:06:21;20.50;99.90
19342;DHT22;9807;48.258;12.690;2022-08-30T02:08:48;20.50;99.90
19342;DHT22;9807;48.258;12.690;2022-08-30T02:11:14;20.50;99.90
19342;DHT22;9807;48.258;12.690;2022-08-30T02:13:41;20.40;99.90
19342;DHT22;9807;48.258;12.690;2022-08-30T02:16:13;20.40;99.90
19342;DHT22;9807;48.258;12.690;2022-08-30T02:18:40;20.30;99.90
19342;DHT22;9807;48.258;12.690;2022-08-30T02:21:08;20.40;99.90
19342;DHT22;9807;48.258;12.690;2022-08-30T02:23:34;20.40;99.90
19342;DHT22;9807;48.258;12.690;2022-08-30T02:26:00;20.30;99.90
19342;DHT22;9807;48.258;12.690;2022-08-30T02:28:26;20.30;99.90
19342;DHT22;9807;48.258;12.690;2022-08-30T02:30:52;20.30;99.90
19342;DHT22;9807;48.258;12.690;2022-08-30T02:33:19;20.30;99.90
19342;DHT22;9807;48.258;12.690;2022-08-30T02:35:48;20.30;99.90
19342;DHT22;9807;48.258;12.690;2022-08-30T02:38:14;20.20;99.90
19342;DHT22;9807;48.258;12.690;2022-08-30T02:40:39;20.30;99.90
19342;DHT22;9807;48.258;12.690;2022-08-30T02:43:05;20.30;99.90
19342;DHT22;9807;48.258;12.690;2022-08-30T02:45:31;20.30;99.90
19342;DHT22;9807;48.258;12.690;2022-08-30T02:47:57;20.20;99.90
19342;DHT22;9807;48.258;12.690;2022-08-30T02:50:24;20.20;99.90
19342;DHT22;9807;48.258;12.690;2022-08-30T02:52:50;20.20;99.90
19342;DHT22;9807;48.258;12.690;2022-08-30T02:55:17;20.20;99.90
19342;DHT22;9807;48.258;12.690;2022-08-30T02:57:45;20.20;99.90
19342;DHT22;9807;48.258;12.690;2022-08-30T03:00:15;20.10;99.90
19342;DHT22;9807;48.258;12.690;2022-08-30T03:02:41;20.20;99.90
19342;DHT22;9807;48.258;12.690;2022-08-30T03:05:09;20.10;99.90
19342;DHT22;9807;48.258;12.690;2022-08-30T03:07:37;20.10;99.90
19342;DHT22;9807;48.258;12.690;2022-08-30T03:10:04;20.10;99.90
19342;DHT22;9807;48.258;12.690;2022-08-30T03:12:30;20.10;99.90
19342;DHT22;9807;48.258;12.690;2022-08-30T03:14:57;20.10;99.90
19342;DHT22;9807;48.258;12.690;2022-08-30T03:17:23;20.10;99.90
19342;DHT22;9807;48.258;12.690;2022-08-30T03:19:49;20.10;99.90
19342;DHT22;9807;48.258;12.690;2022-08-30T03:22:14;20.10;99.90
19342;DHT22;9807;48.258;12.690;2022-08-30T03:24:40;20.00;99.90
19342;DHT22;9807;48.258;12.690;2022-08-30T03:27:06;20.10;99.90
19342;DHT22;9807;48.258;12.690;2022-08-30T03:29:37;20.00;99.90
19342;DHT22;9807;48.258;12.690;2022-08-30T03:32:04;20.00;99.90
19342;DHT22;9807;48.258;12.690;2022-08-30T03:34:31;20.00;99.90
19342;DHT22;9807;48.258;12.690;2022-08-30T03:36:57;20.00;99.90
19342;DHT22;9807;48.258;12.690;2022-08-30T03:39:23;20.00;99.90
19342;DHT22;9807;48.258;12.690;2022-08-30T03:41:49;20.00;99.90
19342;DHT22;9807;48.258;12.690;2022-08-30T03:44:15;20.00;99.90
19342;DHT22;9807;48.258;12.690;2022-08-30T03:46:41;20.00;99.90
19342;DHT22;9807;48.258;12.690;2022-08-30T03:49:07;19.90;99.90
19342;DHT22;9807;48.258;12.690;2022-08-30T03:51:33;19.90;99.90
19342;DHT22;9807;48.258;12.690;2022-08-30T03:53:59;19.90;99.90
19342;DHT22;9807;48.258;12.690;2022-08-30T03:56:32;19.90;99.90
19342;DHT22;9807;48.258;12.690;2022-08-30T03:58:58;19.90;99.90
19342;DHT22;9807;48.258;12.690;2022-08-30T04:01:24;19.90;99.90
19342;DHT22;9807;48.258;12.690;2022-08-30T04:03:49;19.90;99.90
19342;DHT22;9807;48.258;12.690;2022-08-30T04:06:15;19.90;99.90
19342;DHT22;9807;48.258;12.690;2022-08-30T04:08:41;19.90;99.90
19342;DHT22;9807;48.258;12.690;2022-08-30T04:11:09;19.90;99.90
19342;DHT22;9807;48.258;12.690;2022-08-30T04:13:34;19.90;99.90
19342;DHT22;9807;48.258;12.690;2022-08-30T04:16:00;19.90;99.90
19342;DHT22;9807;48.258;12.690;2022-08-30T04:18:26;19.80;99.90
19342;DHT22;9807;48.258;12.690;2022-08-30T04:20:52;19.80;99.90
19342;DHT22;9807;48.258;12.690;2022-08-30T04:23:18;19.90;99.90
19342;DHT22;9807;48.258;12.690;2022-08-30T04:25:44;19.80;99.90
19342;DHT22;9807;48.258;12.690;2022-08-30T04:28:10;19.80;99.90
19342;DHT22;9807;48.258;12.690;2022-08-30T04:30:41;19.80;99.90
19342;DHT22;9807;48.258;12.690;2022-08-30T04:33:08;20.00;99.90
19342;DHT22;9807;48.258;12.690;2022-08-30T04:35:34;19.80;99.90
19342;DHT22;9807;48.258;12.690;2022-08-30T04:38:00;19.70;99.90
19342;DHT22;9807;48.258;12.690;2022-08-30T04:40:28;19.60;99.90
19342;DHT22;9807;48.258;12.690;2022-08-30T04:42:54;19.70;99.90
19342;DHT22;9807;48.258;12.690;2022-08-30T04:45:21;19.70;99.90
19342;DHT22;9807;48.258;12.690;2022-08-30T04:47:47;19.70;99.90
19342;DHT22;9807;48.258;12.690;2022-08-30T04:50:17;19.60;99.90
19342;DHT22;9807;48.258;12.690;2022-08-30T04:52:43;19.70;99.90
19342;DHT22;9807;48.258;12.690;2022-08-30T04:55:10;19.60;99.90
19342;DHT22;9807;48.258;12.690;2022-08-30T04:57:37;19.70;99.90
19342;DHT22;9807;48.258;12.690;2022-08-30T05:00:09;19.70;99.90
19342;DHT22;9807;48.258;12.690;2022-08-30T05:02:36;19.70;99.90
19342;DHT22;9807;48.258;12.690;2022-08-30T05:05:06;19.70;99.90
19342;DHT22;9807;48.258;12.690;2022-08-30T05:07:51;19.70;99.90
19342;DHT22;9807;48.258;12.690;2022-08-30T05:10:16;19.70;99.90
19342;DHT22;9807;48.258;12.690;2022-08-30T05:12:43;19.70;99.90
19342;DHT22;9807;48.258;12.690;2022-08-30T05:15:10;19.80;99.90
19342;DHT22;9807;48.258;12.690;2022-08-30T05:17:39;19.70;99.90
19342;DHT22;9807;48.258;12.690;2022-08-30T05:20:09;19.70;99.90
19342;DHT22;9807;48.258;12.690;2022-08-30T05:22:36;19.50;99.90
19342;DHT22;9807;48.258;12.690;2022-08-30T05:25:03;19.10;99.90
19342;DHT22;9807;48.258;12.690;2022-08-30T05:27:29;18.90;99.90
19342;DHT22;9807;48.258;12.690;2022-08-30T05:29:55;18.50;99.90
19342;DHT22;9807;48.258;12.690;2022-08-30T05:32:22;18.10;99.90
19342;DHT22;9807;48.258;12.690;2022-08-30T05:34:47;17.70;99.90
19342;DHT22;9807;48.258;12.690;2022-08-30T05:37:13;17.30;99.90
19342;DHT22;9807;48.258;12.690;2022-08-30T05:39:39;16.90;99.90
19342;DHT22;9807;48.258;12.690;2022-08-30T05:42:05;16.80;99.90
19342;DHT22;9807;48.258;12.690;2022-08-30T05:44:30;16.60;99.90
19342;DHT22;9807;48.258;12.690;2022-08-30T05:46:56;16.60;99.90
19342;DHT22;9807;48.258;12.690;2022-08-30T05:49:22;16.60;99.90
19342;DHT22;9807;48.258;12.690;2022-08-30T05:51:48;16.70;99.90
19342;DHT22;9807;48.258;12.690;2022-08-30T05:54:14;16.90;99.90
19342;DHT22;9807;48.258;12.690;2022-08-30T05:56:41;17.10;99.90
19342;DHT22;9807;48.258;12.690;2022-08-30T05:59:10;17.50;99.90
19342;DHT22;9807;48.258;12.690;2022-08-30T06:01:40;17.70;99.90
19342;DHT22;9807;48.258;12.690;2022-08-30T06:04:07;17.70;99.90
19342;DHT22;9807;48.258;12.690;2022-08-30T06:06:35;17.70;99.90
19342;DHT22;9807;48.258;12.690;2022-08-30T06:09:03;17.70;99.90
19342;DHT22;9807;48.258;12.690;2022-08-30T06:11:30;17.70;99.90
19342;DHT22;9807;48.258;12.690;2022-08-30T06:13:55;17.50;99.90
19342;DHT22;9807;48.258;12.690;2022-08-30T06:16:24;17.50;99.90
19342;DHT22;9807;48.258;12.690;2022-08-30T06:18:50;17.50;99.90
19342;DHT22;9807;48.258;12.690;2022-08-30T06:21:28;17.50;99.90
19342;DHT22;9807;48.258;12.690;2022-08-30T06:23:55;17.60;99.90
19342;DHT22;9807;48.258;12.690;2022-08-30T06:26:21;17.60;99.90
19342;DHT22;9807;48.258;12.690;2022-08-30T06:28:47;17.70;99.90
19342;DHT22;9807;48.258;12.690;2022-08-30T06:31:15;17.90;99.90
19342;DHT22;9807;48.258;12.690;2022-08-30T06:33:43;18.10;99.90
19342;DHT22;9807;48.258;12.690;2022-08-30T06:36:21;18.40;99.90
19342;DHT22;9807;48.258;12.690;2022-08-30T06:38:53;18.80;99.90
19342;DHT22;9807;48.258;12.690;2022-08-30T06:41:22;19.10;99.90
19342;DHT22;9807;48.258;12.690;2022-08-30T06:43:49;19.50;99.90
19342;DHT22;9807;48.258;12.690;2022-08-30T06:46:25;19.80;99.90
19342;DHT22;9807;48.258;12.690;2022-08-30T06:48:51;20.30;99.90
19342;DHT22;9807;48.258;12.690;2022-08-30T06:51:22;20.50;99.90
19342;DHT22;9807;48.258;12.690;2022-08-30T06:53:48;20.70;99.90
19342;DHT22;9807;48.258;12.690;2022-08-30T06:56:15;20.90;99.90
19342;DHT22;9807;48.258;12.690;2022-08-30T06:58:41;21.30;99.90
19342;DHT22;9807;48.258;12.690;2022-08-30T07:01:14;21.50;99.90
19342;DHT22;9807;48.258;12.690;2022-08-30T07:03:41;21.50;99.90
19342;DHT22;9807;48.258;12.690;2022-08-30T07:06:10;21.80;99.90
19342;DHT22;9807;48.258;12.690;2022-08-30T07:08:36;22.30;99.90
19342;DHT22;9807;48.258;12.690;2022-08-30T07:11:02;22.50;99.90
19342;DHT22;9807;48.258;12.690;2022-08-30T07:13:35;22.50;99.90
19342;DHT22;9807;48.258;12.690;2022-08-30T07:16:01;22.60;99.90
19342;DHT22;9807;48.258;12.690;2022-08-30T07:18:35;22.30;99.90
19342;DHT22;9807;48.258;12.690;2022-08-30T07:21:21;22.00;99.90
19342;DHT22;9807;48.258;12.690;2022-08-30T07:23:47;21.80;99.90
19342;DHT22;9807;48.258;12.690;2022-08-30T07:26:15;21.70;99.90
19342;DHT22;9807;48.258;12.690;2022-08-30T07:28:44;21.70;99.90
19342;DHT22;9807;48.258;12.690;2022-08-30T07:31:10;21.90;99.90
19342;DHT22;9807;48.258;12.690;2022-08-30T07:33:36;22.40;99.90
19342;DHT22;9807;48.258;12.690;2022-08-30T07:36:10;23.00;99.90
19342;DHT22;9807;48.258;12.690;2022-08-30T07:38:36;23.70;99.90
19342;DHT22;9807;48.258;12.690;2022-08-30T07:41:02;24.20;99.90
19342;DHT22;9807;48.258;12.690;2022-08-30T07:43:36;24.70;99.90
19342;DHT22;9807;48.258;12.690;2022-08-30T07:46:11;24.80;99.90
19342;DHT22;9807;48.258;12.690;2022-08-30T07:48:37;25.30;99.90
19342;DHT22;9807;48.258;12.690;2022-08-30T07:51:03;25.60;99.90
19342;DHT22;9807;48.258;12.690;2022-08-30T07:53:33;25.90;99.90
19342;DHT22;9807;48.258;12.690;2022-08-30T07:55:59;26.20;99.90
19342;DHT22;9807;48.258;12.690;2022-08-30T07:58:24;26.20;99.90
19342;DHT22;9807;48.258;12.690;2022-08-30T08:00:50;26.50;99.90
19342;DHT22;9807;48.258;12.690;2022-08-30T08:03:16;26.80;99.90
19342;DHT22;9807;48.258;12.690;2022-08-30T08:05:44;26.90;99.90
19342;DHT22;9807;48.258;12.690;2022-08-30T08:08:11;26.60;99.90
19342;DHT22;9807;48.258;12.690;2022-08-30T08:10:38;26.30;99.90
19342;DHT22;9807;48.258;12.690;2022-08-30T08:13:04;25.90;99.90
19342;DHT22;9807;48.258;12.690;2022-08-30T08:15:30;25.50;99.90
19342;DHT22;9807;48.258;12.690;2022-08-30T08:17:56;25.70;99.90
19342;DHT22;9807;48.258;12.690;2022-08-30T08:20:22;26.10;99.90
19342;DHT22;9807;48.258;12.690;2022-08-30T08:22:50;26.50;99.90
19342;DHT22;9807;48.258;12.690;2022-08-30T08:25:16;27.00;99.90
19342;DHT22;9807;48.258;12.690;2022-08-30T08:27:46;27.60;99.90
19342;DHT22;9807;48.258;12.690;2022-08-30T08:30:12;28.00;99.90
19342;DHT22;9807;48.258;12.690;2022-08-30T08:32:38;28.30;99.90
19342;DHT22;9807;48.258;12.690;2022-08-30T08:35:05;28.30;99.90
19342;DHT22;9807;48.258;12.690;2022-08-30T08:37:30;28.30;99.90
19342;DHT22;9807;48.258;12.690;2022-08-30T08:39:56;28.40;99.90
19342;DHT22;9807;48.258;12.690;2022-08-30T08:45:55;27.30;99.90
19342;DHT22;9807;48.258;12.690;2022-08-30T08:48:25;27.20;99.90
19342;DHT22;9807;48.258;12.690;2022-08-30T08:50:56;27.20;99.90
19342;DHT22;9807;48.258;12.690;2022-08-30T08:53:49;27.40;99.90
19342;DHT22;9807;48.258;12.690;2022-08-30T08:56:18;27.60;99.90
19342;DHT22;9807;48.258;12.690;2022-08-30T08:58:49;27.20;99.90
19342;DHT22;9807;48.258;12.690;2022-08-30T09:01:20;26.80;99.90
19342;DHT22;9807;48.258;12.690;2022-08-30T09:03:47;27.00;99.90
19342;DHT22;9807;48.258;12.690;2022-08-30T09:06:23;27.40;99.90
19342;DHT22;9807;48.258;12.690;2022-08-30T09:08:52;27.70;99.90
19342;DHT22;9807;48.258;12.690;2022-08-30T09:11:26;27.40;99.90
19342;DHT22;9807;48.258;12.690;2022-08-30T09:13:53;27.30;99.90
19342;DHT22;9807;48.258;12.690;2022-08-30T09:22:16;26.80;99.90
19342;DHT22;9807;48.258;12.690;2022-08-30T09:24:50;26.60;99.90
19342;DHT22;9807;48.258;12.690;2022-08-30T09:29:57;27.10;99.90
19342;DHT22;9807;48.258;12.690;2022-08-30T09:32:26;27.40;99.90
19342;DHT22;9807;48.258;12.690;2022-08-30T09:34:52;27.50;99.90
19342;DHT22;9807;48.258;12.690;2022-08-30T09:37:27;27.60;99.90
19342;DHT22;9807;48.258;12.690;2022-08-30T09:39:53;27.60;99.90
19342;DHT22;9807;48.258;12.690;2022-08-30T09:42:22;27.60;99.90
19342;DHT22;9807;48.258;12.690;2022-08-30T09:44:50;27.60;99.90
19342;DHT22;9807;48.258;12.690;2022-08-30T09:47:22;27.50;99.90
19342;DHT22;9807;48.258;12.690;2022-08-30T09:50:06;27.20;99.90
19342;DHT22;9807;48.258;12.690;2022-08-30T09:55:27;27.20;99.90
19342;DHT22;9807;48.258;12.690;2022-08-30T10:00:37;27.10;99.90
19342;DHT22;9807;48.258;12.690;2022-08-30T10:03:27;27.10;99.90
19342;DHT22;9807;48.258;12.690;2022-08-30T10:09:17;26.50;99.90
19342;DHT22;9807;48.258;12.690;2022-08-30T10:20:22;26.70;99.90
19342;DHT22;9807;48.258;12.690;2022-08-30T10:23:03;26.60;99.90
19342;DHT22;9807;48.258;12.690;2022-08-30T10:25:54;26.60;99.90
19342;DHT22;9807;48.258;12.690;2022-08-30T10:28:45;26.60;99.90
19342;DHT22;9807;48.258;12.690;2022-08-30T10:31:30;26.60;99.90
19342;DHT22;9807;48.258;12.690;2022-08-30T10:34:02;26.60;99.90
19342;DHT22;9807;48.258;12.690;2022-08-30T10:36:41;26.60;99.90
19342;DHT22;9807;48.258;12.690;2022-08-30T10:39:10;26.60;99.90
19342;DHT22;9807;48.258;12.690;2022-08-30T10:41:41;26.60;99.90
19342;DHT22;9807;48.258;12.690;2022-08-30T10:44:38;26.60;99.90
19342;DHT22;9807;48.258;12.690;2022-08-30T10:47:15;26.60;99.90
19342;DHT22;9807;48.258;12.690;2022-08-30T10:49:46;26.60;99.90
19342;DHT22;9807;48.258;12.690;2022-08-30T10:54:52;26.70;99.90
19342;DHT22;9807;48.258;12.690;2022-08-30T10:57:19;26.60;99.90
19342;DHT22;9807;48.258;12.690;2022-08-30T10:59:50;26.60;99.90
19342;DHT22;9807;48.258;12.690;2022-08-30T11:13:27;26.70;99.90
19342;DHT22;9807;48.258;12.690;2022-08-30T11:16:14;26.70;99.90
19342;DHT22;9807;48.258;12.690;2022-08-30T11:21:37;26.70;99.90
19342;DHT22;9807;48.258;12.690;2022-08-30T11:24:06;26.60;99.90
19342;DHT22;9807;48.258;12.690;2022-08-30T11:32:24;26.80;99.90
19342;DHT22;9807;48.258;12.690;2022-08-30T11:35:06;26.90;99.90
19342;DHT22;9807;48.258;12.690;2022-08-30T11:37:36;26.90;99.90
19342;DHT22;9807;48.258;12.690;2022-08-30T11:42:45;26.90;99.90
19342;DHT22;9807;48.258;12.690;2022-08-30T11:47:50;26.80;99.90
19342;DHT22;9807;48.258;12.690;2022-08-30T12:03:47;27.00;99.90
19342;DHT22;9807;48.258;12.690;2022-08-30T12:09:03;27.00;99.90
19342;DHT22;9807;48.258;12.690;2022-08-30T12:13:59;27.00;99.90
19342;DHT22;9807;48.258;12.690;2022-08-30T12:16:45;27.00;99.90
19342;DHT22;9807;48.258;12.690;2022-08-30T12:19:31;27.00;99.90
19342;DHT22;9807;48.258;12.690;2022-08-30T12:22:03;27.00;99.90
19342;DHT22;9807;48.258;12.690;2022-08-30T12:24:37;27.10;99.90
19342;DHT22;9807;48.258;12.690;2022-08-30T12:27:31;27.20;99.90
19342;DHT22;9807;48.258;12.690;2022-08-30T12:30:00;27.20;99.90
19342;DHT22;9807;48.258;12.690;2022-08-30T12:32:27;27.20;99.90
19342;DHT22;9807;48.258;12.690;2022-08-30T12:34:59;27.30;99.90
19342;DHT22;9807;48.258;12.690;2022-08-30T12:37:30;27.40;99.90
19342;DHT22;9807;48.258;12.690;2022-08-30T12:40:18;27.30;99.90
19342;DHT22;9807;48.258;12.690;2022-08-30T12:42:54;27.30;99.90
19342;DHT22;9807;48.258;12.690;2022-08-30T12:45:24;27.10;99.90
19342;DHT22;9807;48.258;12.690;2022-08-30T12:47:56;27.10;99.90
19342;DHT22;9807;48.258;12.690;2022-08-30T12:50:30;27.10;99.90
19342;DHT22;9807;48.258;12.690;2022-08-30T12:58:56;27.00;99.90
19342;DHT22;9807;48.258;12.690;2022-08-30T13:01:30;26.90;99.90
19342;DHT22;9807;48.258;12.690;2022-08-30T13:04:19;26.90;99.90
19342;DHT22;9807;48.258;12.690;2022-08-30T13:12:07;27.00;99.90
19342;DHT22;9807;48.258;12.690;2022-08-30T13:20:03;27.40;99.90
19342;DHT22;9807;48.258;12.690;2022-08-30T13:22:34;27.50;99.90
19342;DHT22;9807;48.258;12.690;2022-08-30T13:25:01;27.60;99.90
19342;DHT22;9807;48.258;12.690;2022-08-30T13:27:31;27.70;99.90
19342;DHT22;9807;48.258;12.690;2022-08-30T13:30:09;27.80;99.90
19342;DHT22;9807;48.258;12.690;2022-08-30T13:32:35;27.70;99.90
19342;DHT22;9807;48.258;12.690;2022-08-30T13:35:05;27.70;99.90
19342;DHT22;9807;48.258;12.690;2022-08-30T13:37:31;27.80;99.90
19342;DHT22;9807;48.258;12.690;2022-08-30T13:39:58;27.80;99.90
19342;DHT22;9807;48.258;12.690;2022-08-30T13:42:27;27.80;99.90
19342;DHT22;9807;48.258;12.690;2022-08-30T13:44:52;27.70;99.90
19342;DHT22;9807;48.258;12.690;2022-08-30T13:47:18;27.80;99.90
19342;DHT22;9807;48.258;12.690;2022-08-30T13:49:45;27.80;99.90
19342;DHT22;9807;48.258;12.690;2022-08-30T13:52:17;27.80;99.90
19342;DHT22;9807;48.258;12.690;2022-08-30T13:54:46;27.80;99.90
19342;DHT22;9807;48.258;12.690;2022-08-30T13:57:13;27.70;99.90
19342;DHT22;9807;48.258;12.690;2022-08-30T13:59:39;27.60;99.90
19342;DHT22;9807;48.258;12.690;2022-08-30T14:02:05;27.50;99.90
19342;DHT22;9807;48.258;12.690;2022-08-30T14:04:31;27.50;99.90
19342;DHT22;9807;48.258;12.690;2022-08-30T14:06:57;27.60;99.90
19342;DHT22;9807;48.258;12.690;2022-08-30T14:09:22;27.70;99.90
19342;DHT22;9807;48.258;12.690;2022-08-30T14:11:48;27.80;99.90
19342;DHT22;9807;48.258;12.690;2022-08-30T14:14:14;28.00;99.90
19342;DHT22;9807;48.258;12.690;2022-08-30T14:16:45;28.10;99.90
19342;DHT22;9807;48.258;12.690;2022-08-30T14:19:13;28.00;99.90
19342;DHT22;9807;48.258;12.690;2022-08-30T14:21:39;27.90;99.90
19342;DHT22;9807;48.258;12.690;2022-08-30T14:24:05;27.90;99.90
19342;DHT22;9807;48.258;12.690;2022-08-30T14:26:35;27.80;99.90
19342;DHT22;9807;48.258;12.690;2022-08-30T14:29:03;27.60;99.90
19342;DHT22;9807;48.258;12.690;2022-08-30T14:31:30;27.50;99.90
19342;DHT22;9807;48.258;12.690;2022-08-30T14:33:56;27.40;99.90
19342;DHT22;9807;48.258;12.690;2022-08-30T14:36:21;27.50;99.90
19342;DHT22;9807;48.258;12.690;2022-08-30T14:38:47;27.60;99.90
19342;DHT22;9807;48.258;12.690;2022-08-30T14:41:13;27.60;99.90
19342;DHT22;9807;48.258;12.690;2022-08-30T14:43:39;27.60;99.90
19342;DHT22;9807;48.258;12.690;2022-08-30T14:46:09;27.60;99.90
19342;DHT22;9807;48.258;12.690;2022-08-30T14:48:36;27.50;99.90
19342;DHT22;9807;48.258;12.690;2022-08-30T14:51:02;27.70;99.90
19342;DHT22;9807;48.258;12.690;2022-08-30T14:53:35;27.80;99.90
19342;DHT22;9807;48.258;12.690;2022-08-30T14:56:11;27.70;99.90
19342;DHT22;9807;48.258;12.690;2022-08-30T14:58:37;27.80;99.90
19342;DHT22;9807;48.258;12.690;2022-08-30T15:01:08;27.80;99.90
19342;DHT22;9807;48.258;12.690;2022-08-30T15:03:36;27.80;99.90
19342;DHT22;9807;48.258;12.690;2022-08-30T15:06:03;27.90;99.90
19342;DHT22;9807;48.258;12.690;2022-08-30T15:08:34;27.70;99.90
19342;DHT22;9807;48.258;12.690;2022-08-30T15:11:00;27.60;99.90
19342;DHT22;9807;48.258;12.690;2022-08-30T15:13:26;27.70;99.90
19342;DHT22;9807;48.258;12.690;2022-08-30T15:15:52;27.80;99.90
19342;DHT22;9807;48.258;12.690;2022-08-30T15:18:18;27.90;99.90
19342;DHT22;9807;48.258;12.690;2022-08-30T15:20:47;27.80;99.90
19342;DHT22;9807;48.258;12.690;2022-08-30T15:23:14;27.80;99.90
19342;DHT22;9807;48.258;12.690;2022-08-30T15:25:40;27.90;99.90
19342;DHT22;9807;48.258;12.690;2022-08-30T15:28:06;27.90;99.90
19342;DHT22;9807;48.258;12.690;2022-08-30T15:30:35;28.00;99.90
19342;DHT22;9807;48.258;12.690;2022-08-30T15:33:02;28.10;99.90
19342;DHT22;9807;48.258;12.690;2022-08-30T15:35:28;28.20;99.90
19342;DHT22;9807;48.258;12.690;2022-08-30T15:37:53;28.20;99.90
19342;DHT22;9807;48.258;12.690;2022-08-30T15:40:19;28.10;99.90
19342;DHT22;9807;48.258;12.690;2022-08-30T15:42:45;28.10;99.90
19342;DHT22;9807;48.258;12.690;2022-08-30T15:45:11;28.00;99.90
19342;DHT22;9807;48.258;12.690;2022-08-30T15:47:37;28.00;99.90
19342;DHT22;9807;48.258;12.690;2022-08-30T15:50:05;28.00;99.90
19342;DHT22;9807;48.258;12.690;2022-08-30T15:52:31;28.00;99.90
19342;DHT22;9807;48.258;12.690;2022-08-30T15:54:57;27.90;99.90
19342;DHT22;9807;48.258;12.690;2022-08-30T15:57:23;27.80;99.90
19342;DHT22;9807;48.258;12.690;2022-08-30T15:59:50;27.80;99.90
19342;DHT22;9807;48.258;12.690;2022-08-30T16:02:16;27.80;99.90
19342;DHT22;9807;48.258;12.690;2022-08-30T16:04:42;27.90;99.90
19342;DHT22;9807;48.258;12.690;2022-08-30T16:07:08;27.80;99.90
19342;DHT22;9807;48.258;12.690;2022-08-30T16:09:35;27.90;99.90
19342;DHT22;9807;48.258;12.690;2022-08-30T16:12:03;27.80;99.90
19342;DHT22;9807;48.258;12.690;2022-08-30T16:14:29;27.70;99.90
19342;DHT22;9807;48.258;12.690;2022-08-30T16:16:56;27.60;99.90
19342;DHT22;9807;48.258;12.690;2022-08-30T16:19:21;27.70;99.90
19342;DHT22;9807;48.258;12.690;2022-08-30T16:21:47;27.70;99.90
19342;DHT22;9807;48.258;12.690;2022-08-30T16:24:13;27.70;99.90
19342;DHT22;9807;48.258;12.690;2022-08-30T16:26:41;27.80;99.90
19342;DHT22;9807;48.258;12.690;2022-08-30T16:29:07;27.90;99.90
19342;DHT22;9807;48.258;12.690;2022-08-30T16:31:34;28.10;99.90
19342;DHT22;9807;48.258;12.690;2022-08-30T16:34:00;28.00;99.90
19342;DHT22;9807;48.258;12.690;2022-08-30T16:36:27;27.90;99.90
19342;DHT22;9807;48.258;12.690;2022-08-30T16:38:53;27.80;99.90
19342;DHT22;9807;48.258;12.690;2022-08-30T16:41:20;27.70;99.90
19342;DHT22;9807;48.258;12.690;2022-08-30T16:43:46;27.80;99.90
19342;DHT22;9807;48.258;12.690;2022-08-30T16:46:14;27.80;99.90
19342;DHT22;9807;48.258;12.690;2022-08-30T16:48:41;27.70;99.90
19342;DHT22;9807;48.258;12.690;2022-08-30T16:51:23;27.70;99.90
19342;DHT22;9807;48.258;12.690;2022-08-30T16:53:49;27.70;99.90
19342;DHT22;9807;48.258;12.690;2022-08-30T16:56:19;27.80;99.90
19342;DHT22;9807;48.258;12.690;2022-08-30T16:58:47;27.80;99.90
19342;DHT22;9807;48.258;12.690;2022-08-30T17:01:14;27.70;99.90
19342;DHT22;9807;48.258;12.690;2022-08-30T17:03:39;27.70;99.90
19342;DHT22;9807;48.258;12.690;2022-08-30T17:06:08;27.80;99.90
19342;DHT22;9807;48.258;12.690;2022-08-30T17:08:34;27.80;99.90
19342;DHT22;9807;48.258;12.690;2022-08-30T17:11:00;27.80;99.90